Main page
METAR-TAF:

METAR-TAF

Airports :

Birmingham, England

Birmingham Airport

latitude: 52-27N, longitude: 001-44W, elevation: 99 m

Current weather observation

The report was made 35 minutes ago, at 16:50 UTC
Wind 4 kt from the Southeast, varying between East and South/Southwest
Temperature 19°C
Humidity 49%
Pressure 1013 hPa
Visibility 10 km or more
no clouds below 1500 m and no cumulonimbus

METAR: EGBB 261650Z 14004KT 100V200 CAVOK 19/08 Q1013

Time: 18:25 (17:25 UTC)

Forecast

The report was made 6 hours and 30 minutes ago, at 10:55 UTC
Forecast valid from 26 at 12 UTC to 27 at 12 UTC
Wind 3 kt from variable directions
Visibility 10 km or more
Scattered clouds at a height of 4500 ft
Becoming
from 26 at 18 UTC to 26 at 21 UTC
Wind 10 kt from the Southeast
Probability 30% :
Temporary
from 27 at 01 UTC to 27 at 04 UTC
Visibility: 8000 m
light rain

TAF: EGBB 261055Z 2612/2712 VRB03KT 9999 SCT045 BECMG 2618/2621 13010KT PROB30 TEMPO 2701/2704 8000 -RA

Weather observations and forecasts of more than 4000 airports (METAR and TAF reports).

The available stations are represented by yellow and red dots on the map.

Hover mouse over dot to see the name of the station.

Then click to see weather observations and forecasts.

To change the map : click on the green buttons with a black cross to zoom in, on the green button with a dash to zoom out, or on the green arrows for adjacent maps.


METAR-TAF: